Terminal Aerodrome Forecast
Issued by NWS

Home | Current Version | Previous Version | Graphics & Text | Print | Product List | Glossary On
Versions: 1 2 3 4 5 6 7 8 9 10 11 12 13 14 15 16 17 18
808
FTUS43 KABR 251123
TAFMBG
TAF
KMBG 251123Z 2512/2612 VRB05KT P6SM SKC
     FM251400 28009KT P6SM BKN080
     FM252000 32008KT P6SM VCTS BKN050CB
     FM260200 VRB05KT P6SM SKC=

USA.gov is the U.S. government's official web portal to all federal, state and local government web resources and services.